createdAt,value
2023-04-02T00:01:06.182Z,0
2023-04-02T00:05:39.285Z,0
2023-04-02T00:10:38.514Z,0
2023-04-02T00:15:38.407Z,0
2023-04-02T00:20:35.922Z,0
2023-04-02T00:25:36.229Z,0
2023-04-02T00:30:35.050Z,0
2023-04-02T00:35:34.767Z,0
2023-04-02T00:40:34.549Z,0
2023-04-02T00:45:34.312Z,0
2023-04-02T00:50:34.191Z,0
2023-04-02T00:55:33.962Z,0
2023-04-02T01:04:43.393Z,0
2023-04-02T01:09:45.267Z,0
2023-04-02T01:14:44.985Z,0
2023-04-02T01:19:44.057Z,0
2023-04-02T01:24:41.622Z,0
2023-04-02T01:29:40.398Z,0
2023-04-02T01:34:40.331Z,0
2023-04-02T01:39:42.297Z,0
2023-04-02T01:44:38.014Z,0
2023-04-02T01:49:38.328Z,0
2023-04-02T01:54:37.347Z,0
2023-04-02T03:01:13.652Z,0
2023-04-02T03:05:48.444Z,0
2023-04-02T03:10:48.368Z,0
2023-04-02T03:15:48.185Z,0
2023-04-02T03:20:48.675Z,0
2023-04-02T03:25:45.428Z,0
2023-04-02T03:30:45.554Z,0
2023-04-02T03:35:45.542Z,0
2023-04-02T03:40:45.248Z,0
2023-04-02T03:45:42.725Z,0
2023-04-02T03:50:42.352Z,0
2023-04-02T03:55:41.259Z,0
2023-04-02T03:59:50.240Z,0
2023-04-02T04:04:48.955Z,0
2023-04-02T04:09:49.019Z,0
2023-04-02T04:14:49.291Z,0
2023-04-02T04:19:48.420Z,0
2023-04-02T04:24:50.431Z,0
2023-04-02T04:29:46.444Z,0
2023-04-02T04:34:46.063Z,0
2023-04-02T04:44:46.758Z,0
2023-04-02T04:49:45.895Z,0
2023-04-02T05:04:46.476Z,0
2023-04-02T05:09:43.531Z,0
2023-04-02T05:14:43.615Z,0
2023-04-02T05:19:43.017Z,0
2023-04-02T05:24:57.936Z,0
2023-04-02T05:29:40.401Z,0
2023-04-02T05:34:39.923Z,0
2023-04-02T05:39:39.196Z,0.01
2023-04-02T05:44:39.251Z,0.01
2023-04-02T05:49:38.530Z,0.01
2023-04-02T05:54:38.154Z,0.02
2023-04-02T05:59:39.690Z,0.02
2023-04-02T06:04:38.284Z,0.02
2023-04-02T06:09:39.055Z,0.03
2023-04-02T06:14:36.531Z,0.04
2023-04-02T06:19:36.511Z,0.04
2023-04-02T06:24:35.790Z,0.03
2023-04-02T06:29:35.222Z,0.03
2023-04-02T06:34:35.038Z,0.04
2023-04-02T06:39:35.405Z,0.04
2023-04-02T06:44:35.088Z,0.04
2023-04-02T06:49:35.554Z,0.04
2023-04-02T06:54:32.433Z,0.04
2023-04-02T07:01:19.762Z,0.05
2023-04-02T07:05:54.022Z,0.06
2023-04-02T07:10:51.182Z,0.08
2023-04-02T07:15:51.168Z,0.08
2023-04-02T07:20:52.085Z,0.1
2023-04-02T07:25:49.765Z,0.11
2023-04-02T07:30:49.235Z,0.12
2023-04-02T07:35:49.256Z,0.12
2023-04-02T07:40:49.560Z,0.13
2023-04-02T07:45:49.333Z,0.13
2023-04-02T07:50:50.785Z,0.14
2023-04-02T07:55:47.970Z,0.15
2023-04-02T08:00:08.246Z,0.16
2023-04-02T08:05:07.217Z,0.16
2023-04-02T08:10:06.681Z,0.14
2023-04-02T08:15:06.047Z,0.15
2023-04-02T08:20:06.429Z,0.17
2023-04-02T08:25:05.991Z,0.19
2023-04-02T08:30:07.416Z,0.23
2023-04-02T08:35:14.338Z,0.28
2023-04-02T08:40:14.055Z,0.3
2023-04-02T08:45:27.972Z,0.34
2023-04-02T08:50:12.893Z,0.36
2023-04-02T08:55:12.386Z,0.36
2023-04-02T09:04:49.429Z,0.39
2023-04-02T09:24:46.394Z,0.45
2023-04-02T09:44:44.028Z,0.38
2023-04-02T10:04:40.513Z,0.33
2023-04-02T10:09:37.430Z,0.3
2023-04-02T10:14:37.088Z,0.32
2023-04-02T10:19:36.526Z,0.32
2023-04-02T10:24:35.896Z,0.31
2023-04-02T10:29:38.615Z,0.34
2023-04-02T10:34:35.332Z,0.33
2023-04-02T10:39:35.155Z,0.37
2023-04-02T10:44:48.731Z,0.43
2023-04-02T10:49:36.433Z,0.47
2023-04-02T10:54:33.190Z,0.5
2023-04-02T12:01:15.399Z,0.16
2023-04-02T12:05:51.612Z,0.13
2023-04-02T12:10:46.400Z,0.1
2023-04-02T12:15:46.461Z,0.09
2023-04-02T12:20:45.866Z,0.08
2023-04-02T12:25:45.652Z,0.11
2023-04-02T12:30:43.135Z,0.18
2023-04-02T12:35:42.835Z,0.27
2023-04-02T12:40:41.461Z,0.34
2023-04-02T12:45:42.037Z,0.36
2023-04-02T12:50:40.232Z,0.33
2023-04-02T12:55:38.823Z,0.32
2023-04-02T13:00:15.556Z,0.28
2023-04-02T13:05:16.295Z,0.19
2023-04-02T13:10:13.385Z,0.1
2023-04-02T13:15:13.158Z,0.09
2023-04-02T13:20:14.132Z,0.13
2023-04-02T13:25:10.739Z,0.17
2023-04-02T13:30:09.941Z,0.21
2023-04-02T13:35:10.602Z,0.25
2023-04-02T13:40:09.169Z,0.15
2023-04-02T13:44:57.338Z,0.13
2023-04-02T13:49:56.594Z,0.09
2023-04-02T13:54:56.677Z,0.12
2023-04-02T14:04:42.404Z,0.18
2023-04-02T14:09:40.938Z,0.17
2023-04-02T14:14:40.841Z,0.15
2023-04-02T14:24:40.181Z,0.11
2023-04-02T14:29:39.554Z,0.06
2023-04-02T14:34:39.052Z,0.07
2023-04-02T14:45:30.673Z,0.18
2023-04-02T14:59:35.635Z,0.11
2023-04-02T15:04:35.555Z,0.09
2023-04-02T15:09:51.592Z,0.09
2023-04-02T15:14:32.884Z,0.08
2023-04-02T15:19:33.254Z,0.06
2023-04-02T15:24:32.366Z,0.05
2023-04-02T15:29:47.241Z,0.05
2023-04-02T15:34:29.875Z,0.05
2023-04-02T15:39:29.103Z,0.05
2023-04-02T15:44:29.038Z,0.05
2023-04-02T15:49:28.597Z,0.03
2023-04-02T15:54:28.132Z,0.04
2023-04-02T16:01:14.833Z,0.03
2023-04-02T16:05:48.997Z,0.04
2023-04-02T16:10:59.462Z,0.04
2023-04-02T16:15:46.563Z,0.03
2023-04-02T16:20:47.096Z,0.04
2023-04-02T16:25:46.309Z,0.03
2023-04-02T16:36:15.610Z,0.03
2023-04-02T16:40:51.650Z,0.02
2023-04-02T16:45:45.541Z,0.02
2023-04-02T16:50:46.020Z,0.01
2023-04-02T16:55:42.295Z,0.01
2023-04-02T16:59:50.854Z,0.01
2023-04-02T17:04:53.174Z,0.01
2023-04-02T17:09:49.565Z,0
2023-04-02T17:14:47.421Z,0
2023-04-02T17:29:45.586Z,0
2023-04-02T17:49:47.742Z,0
2023-04-02T18:04:41.265Z,0
2023-04-02T18:54:36.614Z,0
2023-04-02T18:59:34.887Z,0
2023-04-02T19:04:35.231Z,0
2023-04-02T19:09:33.678Z,0
2023-04-02T19:14:33.306Z,0
2023-04-02T19:19:31.301Z,0
2023-04-02T19:29:30.357Z,0
2023-04-02T19:34:30.104Z,0
2023-04-02T19:39:29.451Z,0
2023-04-02T19:44:27.344Z,0
2023-04-02T19:49:26.611Z,0
2023-04-02T19:54:26.293Z,0
2023-04-02T19:59:38.904Z,0
2023-04-02T20:01:27.287Z,0
2023-04-02T20:05:47.358Z,0
2023-04-02T20:10:46.572Z,0
2023-04-02T20:15:48.556Z,0
2023-04-02T20:20:45.421Z,0
2023-04-02T20:25:44.244Z,0
2023-04-02T20:30:44.023Z,0
2023-04-02T20:35:43.713Z,0
2023-04-02T20:40:41.165Z,0
2023-04-02T20:45:40.505Z,0
2023-04-02T20:50:39.959Z,0
2023-04-02T20:55:40.592Z,0
2023-04-02T21:00:06.819Z,0
2023-04-02T21:05:06.200Z,0
2023-04-02T21:10:07.419Z,0
2023-04-02T21:15:06.171Z,0
2023-04-02T21:20:14.182Z,0
2023-04-02T21:25:13.669Z,0
2023-04-02T21:30:13.941Z,0
2023-04-02T21:35:12.588Z,0
2023-04-02T21:40:13.154Z,0
2023-04-02T21:45:12.596Z,0
2023-04-02T21:50:13.107Z,0
2023-04-02T21:55:10.373Z,0
2023-04-02T21:59:47.536Z,0
2023-04-02T22:04:47.358Z,0
2023-04-02T22:09:46.482Z,0
2023-04-02T22:14:46.495Z,0
2023-04-02T22:34:45.187Z,0
2023-04-02T22:39:44.460Z,0
2023-04-02T22:44:44.244Z,0
2023-04-02T22:49:43.447Z,0
2023-04-02T22:54:43.062Z,0
2023-04-02T22:59:43.341Z,0
2023-04-02T23:04:43.175Z,0
2023-04-02T23:09:44.132Z,0
2023-04-02T23:14:40.370Z,0
2023-04-02T23:19:40.096Z,0
2023-04-02T23:24:39.550Z,0
2023-04-02T23:34:37.069Z,0
2023-04-02T23:39:36.764Z,0
2023-04-02T23:49:35.696Z,0
2023-04-02T23:54:35.547Z,0
